Time,TemperatureF,DewpointF,PressureIn,WindDirection,WindDirectionDegrees,WindSpeedMPH,WindSpeedGustMPH,Humidity,HourlyPrecipIn,Conditions,Clouds,dailyrainin,SoftwareType,DateUTC
2013-01-27 00:00:00,19.0,8.5,30.28,SW,220,4.9,7.6,63,0.00,,SCT060,0.00,VWS V14.01,2013-01-27 05:00:00,
2013-01-27 00:01:00,19.0,8.5,30.28,WSW,238,6.3,8.1,63,0.00,,SCT060,0.00,VWS V14.01,2013-01-27 05:01:00,
2013-01-27 00:04:00,19.0,8.5,30.28,WSW,238,3.1,3.1,63,0.00,,SCT060,0.00,VWS V14.01,2013-01-27 05:04:00,
2013-01-27 00:07:00,19.2,8.7,30.31,West,265,4.0,5.8,63,0.00,,SCT060,0.00,VWS V14.01,2013-01-27 05:07:00,
2013-01-27 00:12:00,19.2,8.7,30.31,WSW,246,7.6,7.6,63,0.00,,SCT060,0.00,VWS V14.01,2013-01-27 05:12:00,
2013-01-27 00:17:00,19.2,8.7,30.31,SW,230,4.0,6.3,63,0.00,,SCT060,0.00,VWS V14.01,2013-01-27 05:17:00,
2013-01-27 00:22:00,19.2,9.1,30.31,WSW,246,6.3,10.1,64,0.00,,SCT060,0.00,VWS V14.01,2013-01-27 05:22:00,
2013-01-27 00:28:00,19.4,9.2,30.31,SW,216,5.4,6.3,64,0.00,,SCT060,0.00,VWS V14.01,2013-01-27 05:28:00,
2013-01-27 00:33:00,19.4,9.2,30.31,SW,232,8.3,8.3,64,0.00,,SCT060,0.00,VWS V14.01,2013-01-27 05:33:00,
2013-01-27 00:38:00,19.4,9.2,30.31,WSW,253,6.3,6.3,64,0.00,,SCT060,0.00,VWS V14.01,2013-01-27 05:38:00,
2013-01-27 00:43:00,19.4,9.2,30.31,SW,236,5.8,7.6,64,0.00,,SCT060,0.00,VWS V14.01,2013-01-27 05:43:00,
2013-01-27 00:48:00,19.6,9.4,30.31,WSW,241,4.0,5.4,64,0.00,,SCT060,0.00,VWS V14.01,2013-01-27 05:48:00,
2013-01-27 00:53:00,19.6,9.4,30.31,WSW,250,6.3,6.3,64,0.00,,SCT060,0.00,VWS V14.01,2013-01-27 05:53:00,
2013-01-27 00:58:00,19.6,9.4,30.31,SW,225,7.6,7.6,64,0.00,,SCT060,0.00,VWS V14.01,2013-01-27 05:58:00,
2013-01-27 01:03:00,19.4,9.2,30.31,SSW,200,4.9,7.2,64,0.00,,SCT060,0.00,VWS V14.01,2013-01-27 06:03:00,
2013-01-27 01:08:00,19.6,9.4,30.34,SSW,192,4.0,4.0,64,0.00,,SCT060,0.00,VWS V14.01,2013-01-27 06:08:00,
2013-01-27 01:13:00,19.6,9.4,30.34,WSW,241,5.8,6.3,64,0.00,,SCT060,0.00,VWS V14.01,2013-01-27 06:13:00,
2013-01-27 01:18:00,19.6,9.4,30.34,WSW,243,4.9,7.6,64,0.00,,SCT060,0.00,VWS V14.01,2013-01-27 06:18:00,
2013-01-27 01:23:00,19.8,9.9,30.34,SW,230,5.4,5.4,65,0.00,,SCT060,0.00,VWS V14.01,2013-01-27 06:23:00,
2013-01-27 01:28:00,19.8,9.9,30.34,SW,235,4.0,4.0,65,0.00,,SCT060,0.00,VWS V14.01,2013-01-27 06:28:00,
2013-01-27 01:33:00,19.8,9.9,30.34,SW,228,4.9,4.9,65,0.00,,SCT065,0.00,VWS V14.01,2013-01-27 06:33:00,
2013-01-27 01:38:00,19.8,9.9,30.34,SW,217,3.1,3.1,65,0.00,,SCT065,0.00,VWS V14.01,2013-01-27 06:38:00,
2013-01-27 01:43:00,19.8,9.9,30.34,WSW,247,6.3,8.7,65,0.00,,SCT065,0.00,VWS V14.01,2013-01-27 06:43:00,
2013-01-27 01:48:00,19.9,10.4,30.34,West,273,3.6,4.0,66,0.00,,SCT065,0.00,VWS V14.01,2013-01-27 06:48:00,
2013-01-27 01:53:00,19.9,10.4,30.34,WSW,247,4.0,4.9,66,0.00,,SCT065,0.00,VWS V14.01,2013-01-27 06:53:00,
2013-01-27 01:58:00,19.9,10.4,30.34,SW,236,4.0,4.0,66,0.00,,SCT065,0.00,VWS V14.01,2013-01-27 06:58:00,
2013-01-27 02:03:00,19.9,10.8,30.34,WSW,256,7.6,7.6,67,0.00,,SCT065,0.00,VWS V14.01,2013-01-27 07:03:00,
2013-01-27 02:08:00,20.1,10.9,30.34,WNW,303,3.1,4.0,67,0.00,,SCT065,0.00,VWS V14.01,2013-01-27 07:08:00,
2013-01-27 02:14:00,20.1,10.9,30.34,WSW,257,4.0,7.6,67,0.00,,SCT065,0.00,VWS V14.01,2013-01-27 07:14:00,
2013-01-27 02:19:00,20.1,10.9,30.34,SW,229,4.0,5.8,67,0.00,,SCT065,0.00,VWS V14.01,2013-01-27 07:19:00,
2013-01-27 02:24:00,20.1,11.3,30.34,SW,228,3.1,3.1,68,0.00,,SCT065,0.00,VWS V14.01,2013-01-27 07:24:00,
2013-01-27 02:29:00,20.1,11.3,30.34,WSW,251,5.8,5.8,68,0.00,,SCT065,0.00,VWS V14.01,2013-01-27 07:29:00,
2013-01-27 02:34:00,20.1,11.6,30.34,WSW,258,3.6,5.8,69,0.00,,SCT065,0.00,VWS V14.01,2013-01-27 07:34:00,
2013-01-27 02:39:00,20.1,11.6,30.34,SW,233,3.6,3.6,69,0.00,,SCT065,0.00,VWS V14.01,2013-01-27 07:39:00,
2013-01-27 02:44:00,20.1,11.6,30.34,West,265,5.8,5.8,69,0.00,,SCT065,0.00,VWS V14.01,2013-01-27 07:44:00,
2013-01-27 02:49:00,20.1,11.6,30.37,West,260,6.3,6.3,69,0.00,,SCT065,0.00,VWS V14.01,2013-01-27 07:49:00,
2013-01-27 02:54:00,19.9,11.4,30.37,WSW,239,4.0,4.9,69,0.00,,SCT065,0.00,VWS V14.01,2013-01-27 07:54:00,
2013-01-27 02:59:00,19.8,11.2,30.37,WSW,255,3.1,3.6,69,0.00,,SCT065,0.00,VWS V14.01,2013-01-27 07:59:00,
2013-01-27 03:04:00,19.6,11.1,30.37,WSW,242,4.0,4.0,69,0.00,,,0.00,VWS V14.01,2013-01-27 08:04:00,
2013-01-27 03:09:00,19.6,11.1,30.37,WSW,249,5.4,5.4,69,0.00,,,0.00,VWS V14.01,2013-01-27 08:09:00,
2013-01-27 03:14:00,19.6,11.1,30.37,WSW,251,2.7,3.6,69,0.00,,,0.00,VWS V14.01,2013-01-27 08:14:00,
2013-01-27 03:19:00,19.6,11.1,30.37,West,280,4.0,5.8,69,0.00,,,0.00,VWS V14.01,2013-01-27 08:19:00,
2013-01-27 03:24:00,19.6,11.1,30.37,WNW,285,2.2,2.7,69,0.00,,,0.00,VWS V14.01,2013-01-27 08:24:00,
2013-01-27 03:29:00,19.8,11.2,30.37,NW,307,0.0,2.7,69,0.00,,,0.00,VWS V14.01,2013-01-27 08:29:00,
2013-01-27 03:34:00,19.8,11.2,30.37,WSW,252,3.1,3.1,69,0.00,,,0.00,VWS V14.01,2013-01-27 08:34:00,
2013-01-27 03:39:00,19.8,11.2,30.37,West,277,3.6,3.6,69,0.00,,,0.00,VWS V14.01,2013-01-27 08:39:00,
2013-01-27 03:44:00,19.8,11.2,30.37,WSW,244,3.1,4.0,69,0.00,,,0.00,VWS V14.01,2013-01-27 08:44:00,
2013-01-27 03:49:00,19.8,11.2,30.37,WSW,256,2.2,2.7,69,0.00,,,0.00,VWS V14.01,2013-01-27 08:49:00,
2013-01-27 03:54:00,19.8,11.2,30.37,NW,309,4.9,4.9,69,0.00,,,0.00,VWS V14.01,2013-01-27 08:54:00,
2013-01-27 03:59:00,19.8,11.2,30.37,West,271,4.9,4.9,69,0.00,,,0.00,VWS V14.01,2013-01-27 08:59:00,
2013-01-27 04:04:00,19.6,11.1,30.37,West,269,3.1,4.0,69,0.00,,SCT070,0.00,VWS V14.01,2013-01-27 09:04:00,
2013-01-27 04:09:00,19.6,11.1,30.37,West,268,0.0,2.2,69,0.00,,SCT070,0.00,VWS V14.01,2013-01-27 09:09:00,
2013-01-27 04:14:00,19.6,11.1,30.37,West,271,3.1,4.0,69,0.00,,SCT070,0.00,VWS V14.01,2013-01-27 09:14:00,
2013-01-27 04:19:00,19.4,10.9,30.37,West,262,3.1,3.1,69,0.00,,SCT070,0.00,VWS V14.01,2013-01-27 09:19:00,
2013-01-27 04:24:00,19.4,10.9,30.37,West,262,2.2,2.7,69,0.00,,SCT070,0.00,VWS V14.01,2013-01-27 09:24:00,
2013-01-27 04:29:00,19.2,10.4,30.37,West,262,0.0,2.7,68,0.00,,SCT070,0.00,VWS V14.01,2013-01-27 09:29:00,
2013-01-27 04:35:00,18.7,9.6,30.37,West,262,0.0,0.0,67,0.00,,,0.00,VWS V14.01,2013-01-27 09:35:00,
2013-01-27 04:40:00,18.5,9.4,30.37,WSW,252,2.7,3.6,67,0.00,,,0.00,VWS V14.01,2013-01-27 09:40:00,
2013-01-27 04:45:00,18.7,9.6,30.37,WSW,252,2.7,2.7,67,0.00,,,0.00,VWS V14.01,2013-01-27 09:45:00,
2013-01-27 04:50:00,18.1,8.7,30.37,West,266,0.0,0.0,66,0.00,,,0.00,VWS V14.01,2013-01-27 09:50:00,
2013-01-27 04:55:00,17.4,7.7,30.37,WSW,252,0.0,2.2,65,0.00,,,0.00,VWS V14.01,2013-01-27 09:55:00,
2013-01-27 05:00:00,17.4,7.7,30.37,WSW,251,0.0,2.7,65,0.00,,,0.00,VWS V14.01,2013-01-27 10:00:00,
2013-01-27 05:05:00,17.4,7.7,30.37,WSW,251,0.0,2.2,65,0.00,,,0.00,VWS V14.01,2013-01-27 10:05:00,
2013-01-27 05:10:00,17.4,7.7,30.37,WSW,251,2.7,2.7,65,0.00,,,0.00,VWS V14.01,2013-01-27 10:10:00,
2013-01-27 05:15:00,17.1,7.3,30.37,WSW,252,0.0,2.2,65,0.00,,,0.00,VWS V14.01,2013-01-27 10:15:00,
2013-01-27 05:20:00,17.1,7.3,30.37,WSW,251,2.7,2.7,65,0.00,,,0.00,VWS V14.01,2013-01-27 10:20:00,
2013-01-27 05:25:00,16.3,6.3,30.37,WSW,251,0.0,0.0,64,0.00,,,0.00,VWS V14.01,2013-01-27 10:25:00,
2013-01-27 05:30:00,15.6,5.3,30.37,WSW,251,0.0,0.0,63,0.00,,,0.00,VWS V14.01,2013-01-27 10:30:00,
2013-01-27 05:35:00,15.6,5.3,30.40,WSW,251,0.0,0.0,63,0.00,,,0.00,VWS V14.01,2013-01-27 10:35:00,
2013-01-27 05:40:00,16.0,5.6,30.40,WSW,251,0.0,0.0,63,0.00,,,0.00,VWS V14.01,2013-01-27 10:40:00,
2013-01-27 05:45:00,16.7,6.7,30.40,WSW,251,0.0,0.0,64,0.00,,,0.00,VWS V14.01,2013-01-27 10:45:00,
2013-01-27 05:50:00,16.3,6.3,30.37,WSW,251,2.2,2.2,64,0.00,,,0.00,VWS V14.01,2013-01-27 10:50:00,
2013-01-27 05:55:00,16.3,6.3,30.37,WSW,251,0.0,0.0,64,0.00,,,0.00,VWS V14.01,2013-01-27 10:55:00,
2013-01-27 06:00:00,16.5,6.8,30.37,WSW,251,0.0,0.0,65,0.00,,,0.00,VWS V14.01,2013-01-27 11:00:00,
2013-01-27 06:05:00,16.2,6.5,30.40,WSW,251,0.0,0.0,65,0.00,,,0.00,VWS V14.01,2013-01-27 11:05:00,
2013-01-27 06:10:00,16.0,6.3,30.40,WSW,251,0.0,0.0,65,0.00,,,0.00,VWS V14.01,2013-01-27 11:10:00,
2013-01-27 06:15:00,16.3,7.0,30.40,WSW,251,0.0,0.0,66,0.00,,,0.00,VWS V14.01,2013-01-27 11:15:00,
2013-01-27 06:20:00,16.0,6.3,30.40,WSW,251,0.0,0.0,65,0.00,,,0.00,VWS V14.01,2013-01-27 11:20:00,
2013-01-27 06:25:00,15.1,5.1,30.40,WSW,251,0.0,0.0,64,0.00,,,0.00,VWS V14.01,2013-01-27 11:25:00,
2013-01-27 06:30:00,14.5,4.2,30.40,WSW,251,0.0,0.0,63,0.00,,,0.00,VWS V14.01,2013-01-27 11:30:00,
2013-01-27 06:35:00,14.5,4.2,30.40,WSW,251,0.0,0.0,63,0.00,,,0.00,VWS V14.01,2013-01-27 11:35:00,
2013-01-27 06:40:00,14.4,4.1,30.40,WSW,251,0.0,0.0,63,0.00,,,0.00,VWS V14.01,2013-01-27 11:40:00,
2013-01-27 06:45:00,14.2,3.9,30.40,WSW,251,0.0,0.0,63,0.00,,,0.00,VWS V14.01,2013-01-27 11:45:00,
2013-01-27 06:50:00,14.9,5.3,30.40,WSW,252,0.0,0.0,65,0.00,,,0.00,VWS V14.01,2013-01-27 11:50:00,
2013-01-27 06:55:00,15.1,5.8,30.40,WSW,252,0.0,0.0,66,0.00,,,0.00,VWS V14.01,2013-01-27 11:55:00,
2013-01-27 07:00:00,14.4,4.8,30.40,WSW,251,2.7,2.7,65,0.00,,,0.00,VWS V14.01,2013-01-27 12:00:00,
2013-01-27 07:05:00,14.5,5.3,30.40,WSW,251,2.2,2.2,66,0.00,,,0.00,VWS V14.01,2013-01-27 12:05:00,
2013-01-27 07:10:00,15.3,6.3,30.40,WSW,252,0.0,0.0,67,0.00,,,0.00,VWS V14.01,2013-01-27 12:10:00,
2013-01-27 07:15:00,15.3,6.3,30.40,WSW,251,0.0,0.0,67,0.00,,,0.00,VWS V14.01,2013-01-27 12:15:00,
2013-01-27 07:20:00,15.1,6.1,30.42,WSW,251,0.0,0.0,67,0.00,,,0.00,VWS V14.01,2013-01-27 12:20:00,
2013-01-27 07:25:00,16.0,7.3,30.42,WSW,251,0.0,0.0,68,0.00,,,0.00,VWS V14.01,2013-01-27 12:25:00,
2013-01-27 07:31:00,16.2,7.8,30.42,WSW,251,0.0,0.0,69,0.00,,,0.00,VWS V14.01,2013-01-27 12:31:00,
2013-01-27 07:36:00,16.3,8.0,30.42,WSW,251,0.0,0.0,69,0.00,,,0.00,VWS V14.01,2013-01-27 12:36:00,
2013-01-27 07:41:00,16.5,8.5,30.42,WSW,251,0.0,0.0,70,0.00,,,0.00,VWS V14.01,2013-01-27 12:41:00,
2013-01-27 07:46:00,16.7,8.9,30.42,WSW,251,0.0,0.0,71,0.00,,,0.00,VWS V14.01,2013-01-27 12:46:00,
2013-01-27 07:51:00,16.9,9.1,30.42,WSW,251,0.0,0.0,71,0.00,,,0.00,VWS V14.01,2013-01-27 12:51:00,
2013-01-27 07:56:00,16.9,9.1,30.42,WSW,252,0.0,0.0,71,0.00,,,0.00,VWS V14.01,2013-01-27 12:56:00,
2013-01-27 08:01:00,17.1,9.3,30.42,WSW,251,0.0,0.0,71,0.00,,,0.00,VWS V14.01,2013-01-27 13:01:00,
2013-01-27 08:06:00,17.1,9.3,30.42,WSW,251,0.0,0.0,71,0.00,,,0.00,VWS V14.01,2013-01-27 13:06:00,
2013-01-27 08:11:00,17.2,9.5,30.42,WSW,251,0.0,0.0,71,0.00,,,0.00,VWS V14.01,2013-01-27 13:11:00,
2013-01-27 08:16:00,17.4,9.6,30.42,WSW,251,0.0,0.0,71,0.00,,,0.00,VWS V14.01,2013-01-27 13:16:00,
2013-01-27 08:21:00,17.6,10.1,30.42,WSW,251,0.0,0.0,72,0.00,,,0.00,VWS V14.01,2013-01-27 13:21:00,
2013-01-27 08:26:00,17.8,10.3,30.42,WSW,251,0.0,0.0,72,0.00,,,0.00,VWS V14.01,2013-01-27 13:26:00,
2013-01-27 08:31:00,18.1,10.6,30.42,WSW,251,0.0,0.0,72,0.00,,,0.00,VWS V14.01,2013-01-27 13:31:00,
2013-01-27 08:36:00,18.1,11.0,30.42,WSW,251,0.0,0.0,73,0.00,,,0.00,VWS V14.01,2013-01-27 13:36:00,
2013-01-27 08:41:00,18.5,11.3,30.42,WSW,251,0.0,0.0,73,0.00,,,0.00,VWS V14.01,2013-01-27 13:41:00,
2013-01-27 08:46:00,18.9,12.0,30.42,WSW,251,0.0,0.0,74,0.00,,,0.00,VWS V14.01,2013-01-27 13:46:00,
2013-01-27 08:51:00,19.2,12.3,30.45,NW,314,0.0,0.0,74,0.00,,,0.00,VWS V14.01,2013-01-27 13:51:00,
2013-01-27 08:56:00,19.4,12.5,30.45,NW,318,2.7,2.7,74,0.00,,,0.00,VWS V14.01,2013-01-27 13:56:00,
2013-01-27 09:01:00,19.6,12.4,30.45,NW,319,0.0,0.0,73,0.00,,,0.00,VWS V14.01,2013-01-27 14:01:00,
2013-01-27 09:06:00,19.8,12.5,30.42,NW,319,0.0,0.0,73,0.00,,,0.00,VWS V14.01,2013-01-27 14:06:00,
2013-01-27 09:11:00,19.8,12.2,30.42,NW,319,0.0,0.0,72,0.00,,,0.00,VWS V14.01,2013-01-27 14:11:00,
2013-01-27 09:16:00,19.9,12.1,30.42,NW,319,0.0,0.0,71,0.00,,,0.00,VWS V14.01,2013-01-27 14:16:00,
2013-01-27 09:21:00,20.3,12.1,30.42,NW,319,0.0,0.0,70,0.00,,,0.00,VWS V14.01,2013-01-27 14:21:00,
2013-01-27 09:26:00,20.5,11.9,30.42,NW,319,0.0,0.0,69,0.00,,,0.00,VWS V14.01,2013-01-27 14:26:00,
2013-01-27 09:31:00,20.5,11.9,30.42,North,9,2.7,2.7,69,0.00,,,0.00,VWS V14.01,2013-01-27 14:31:00,
2013-01-27 09:36:00,20.5,11.6,30.42,NE,42,2.7,3.1,68,0.00,,,0.00,VWS V14.01,2013-01-27 14:36:00,
2013-01-27 09:41:00,20.5,11.3,30.42,NE,43,3.6,3.6,67,0.00,,,0.00,VWS V14.01,2013-01-27 14:41:00,
2013-01-27 09:46:00,20.5,11.3,30.42,East,88,3.6,3.6,67,0.00,,,0.00,VWS V14.01,2013-01-27 14:46:00,
2013-01-27 09:51:00,20.8,11.6,30.42,East,90,3.1,3.1,67,0.00,,,0.00,VWS V14.01,2013-01-27 14:51:00,
2013-01-27 09:57:00,20.8,11.3,30.42,ENE,62,4.0,4.0,66,0.00,,,0.00,VWS V14.01,2013-01-27 14:57:00,
2013-01-27 10:02:00,20.8,11.3,30.42,ENE,61,3.6,3.6,66,0.00,,,0.00,VWS V14.01,2013-01-27 15:02:00,
2013-01-27 10:07:00,21.0,11.5,30.42,ENE,58,3.1,3.1,66,0.00,,,0.00,VWS V14.01,2013-01-27 15:07:00,
2013-01-27 10:12:00,21.2,11.3,30.42,ENE,68,3.1,3.6,65,0.00,,,0.00,VWS V14.01,2013-01-27 15:12:00,
2013-01-27 10:17:00,21.4,11.5,30.42,SSW,205,3.6,3.6,65,0.00,,,0.00,VWS V14.01,2013-01-27 15:17:00,
2013-01-27 10:22:00,21.6,11.3,30.45,WSW,238,2.2,3.1,64,0.00,,,0.00,VWS V14.01,2013-01-27 15:22:00,
2013-01-27 10:27:00,21.4,10.8,30.45,SW,220,0.0,0.0,63,0.00,,,0.00,VWS V14.01,2013-01-27 15:27:00,
2013-01-27 10:32:00,21.6,10.6,30.45,NW,311,4.0,5.4,62,0.00,,,0.00,VWS V14.01,2013-01-27 15:32:00,
2013-01-27 10:37:00,21.2,9.9,30.45,NNW,331,4.9,4.9,61,0.00,,,0.00,VWS V14.01,2013-01-27 15:37:00,
2013-01-27 10:42:00,21.2,9.9,30.45,NNW,329,3.1,3.6,61,0.00,,,0.00,VWS V14.01,2013-01-27 15:42:00,
2013-01-27 10:47:00,21.6,9.8,30.45,SW,233,2.7,2.7,60,0.00,,,0.00,VWS V14.01,2013-01-27 15:47:00,
2013-01-27 10:52:00,21.7,10.0,30.45,WNW,293,2.7,2.7,60,0.00,,,0.00,VWS V14.01,2013-01-27 15:52:00,
2013-01-27 10:57:00,21.9,10.2,30.45,West,268,0.0,0.0,60,0.00,,,0.00,VWS V14.01,2013-01-27 15:57:00,
2013-01-27 11:02:00,22.3,10.5,30.45,NW,313,4.9,5.8,60,0.00,,,0.00,VWS V14.01,2013-01-27 16:02:00,
2013-01-27 11:07:00,22.1,10.4,30.45,NNW,342,3.1,3.6,60,0.00,,,0.00,VWS V14.01,2013-01-27 16:07:00,
2013-01-27 11:12:00,22.5,10.7,30.45,SW,219,5.8,6.3,60,0.00,,,0.00,VWS V14.01,2013-01-27 16:12:00,
2013-01-27 11:17:00,22.6,10.9,30.45,SW,219,4.9,5.4,60,0.00,,,0.00,VWS V14.01,2013-01-27 16:17:00,
2013-01-27 11:22:00,22.8,11.0,30.45,NW,310,4.0,4.0,60,0.00,,,0.00,VWS V14.01,2013-01-27 16:22:00,
2013-01-27 11:27:00,22.6,10.5,30.45,WNW,302,0.0,0.0,59,0.00,,,0.00,VWS V14.01,2013-01-27 16:27:00,
2013-01-27 11:32:00,22.8,10.6,30.45,SSE,157,2.2,2.7,59,0.00,,SCT250,0.00,VWS V14.01,2013-01-27 16:32:00,
2013-01-27 11:37:00,22.8,10.6,30.42,South,186,3.1,3.1,59,0.00,,SCT250,0.00,VWS V14.01,2013-01-27 16:37:00,
2013-01-27 11:42:00,23.0,10.8,30.42,SSW,207,0.0,0.0,59,0.00,,SCT250,0.00,VWS V14.01,2013-01-27 16:42:00,
2013-01-27 11:47:00,23.0,10.4,30.42,SSW,206,0.0,0.0,58,0.00,,SCT250,0.00,VWS V14.01,2013-01-27 16:47:00,
2013-01-27 11:52:00,23.0,10.4,30.42,SSW,206,0.0,0.0,58,0.00,,SCT250,0.00,VWS V14.01,2013-01-27 16:52:00,
2013-01-27 11:57:00,22.8,9.9,30.42,NW,314,0.0,0.0,57,0.00,,SCT250,0.00,VWS V14.01,2013-01-27 16:57:00,
2013-01-27 12:02:00,23.0,10.1,30.42,NW,310,0.0,0.0,57,0.00,,SCT250,0.00,VWS V14.01,2013-01-27 17:02:00,
2013-01-27 12:07:00,23.2,10.2,30.42,NW,310,0.0,0.0,57,0.00,,SCT250,0.00,VWS V14.01,2013-01-27 17:07:00,
2013-01-27 12:12:00,23.5,10.6,30.42,SE,130,3.6,4.0,57,0.00,,SCT250,0.00,VWS V14.01,2013-01-27 17:12:00,
2013-01-27 12:17:00,23.7,10.7,30.42,ENE,66,2.7,2.7,57,0.00,,SCT250,0.00,VWS V14.01,2013-01-27 17:17:00,
2013-01-27 12:22:00,23.7,10.7,30.40,SSE,167,4.0,4.9,57,0.00,,SCT250,0.00,VWS V14.01,2013-01-27 17:22:00,
2013-01-27 12:27:00,23.7,10.7,30.40,SW,224,2.7,2.7,57,0.00,,SCT250,0.00,VWS V14.01,2013-01-27 17:27:00,
2013-01-27 12:32:00,23.9,10.9,30.40,ESE,119,2.7,2.7,57,0.00,,SCT250,0.00,VWS V14.01,2013-01-27 17:32:00,
2013-01-27 12:37:00,24.3,11.2,30.40,SSW,208,5.8,5.8,57,0.00,,SCT250,0.00,VWS V14.01,2013-01-27 17:37:00,
2013-01-27 12:42:00,24.4,11.0,30.40,SE,133,2.7,2.7,56,0.00,,SCT250,0.00,VWS V14.01,2013-01-27 17:42:00,
2013-01-27 12:47:00,24.8,11.3,30.40,South,179,4.5,4.5,56,0.00,,SCT250,0.00,VWS V14.01,2013-01-27 17:47:00,
2013-01-27 12:53:00,25.3,11.9,30.40,South,175,5.8,5.8,56,0.00,,SCT250,0.00,VWS V14.01,2013-01-27 17:53:00,
2013-01-27 12:58:00,25.3,11.9,30.40,South,188,8.1,8.1,56,0.00,,SCT250,0.00,VWS V14.01,2013-01-27 17:58:00,
2013-01-27 13:03:00,25.3,11.9,30.40,SW,224,8.7,8.7,56,0.00,,SCT250,0.00,VWS V14.01,2013-01-27 18:03:00,
2013-01-27 13:08:00,25.3,11.9,30.40,SSW,212,4.9,4.9,56,0.00,,SCT250,0.00,VWS V14.01,2013-01-27 18:08:00,
2013-01-27 13:13:00,25.2,11.3,30.40,SSW,198,3.6,4.0,55,0.00,,SCT250,0.00,VWS V14.01,2013-01-27 18:13:00,
2013-01-27 13:18:00,25.2,11.3,30.40,SSW,201,0.0,3.6,55,0.00,,SCT250,0.00,VWS V14.01,2013-01-27 18:18:00,
2013-01-27 13:23:00,25.2,10.9,30.40,South,169,2.2,2.2,54,0.00,,SCT250,0.00,VWS V14.01,2013-01-27 18:23:00,
2013-01-27 13:28:00,25.3,11.0,30.40,WNW,293,4.9,5.4,54,0.00,,SCT250,0.00,VWS V14.01,2013-01-27 18:28:00,
2013-01-27 13:33:00,25.5,10.8,30.40,WSW,248,2.2,3.6,53,0.00,,SCT250,0.00,VWS V14.01,2013-01-27 18:33:00,
2013-01-27 13:38:00,25.5,10.8,30.40,SSW,202,4.0,4.9,53,0.00,,SCT250,0.00,VWS V14.01,2013-01-27 18:38:00,
2013-01-27 13:43:00,25.5,10.8,30.40,West,277,4.5,4.5,53,0.00,,SCT250,0.00,VWS V14.01,2013-01-27 18:43:00,
2013-01-27 13:48:00,25.7,10.5,30.40,West,270,4.0,5.8,52,0.00,,SCT250,0.00,VWS V14.01,2013-01-27 18:48:00,
2013-01-27 13:53:00,25.5,10.4,30.40,West,261,3.6,5.8,52,0.00,,SCT250,0.00,VWS V14.01,2013-01-27 18:53:00,
2013-01-27 13:58:00,25.3,10.2,30.40,WSW,255,0.0,0.0,52,0.00,,SCT250,0.00,VWS V14.01,2013-01-27 18:58:00,
2013-01-27 14:03:00,25.5,10.4,30.40,SSW,205,3.1,4.0,52,0.00,,BKN250,0.00,VWS V14.01,2013-01-27 19:03:00,
2013-01-27 14:08:00,25.7,10.5,30.40,WSW,240,4.0,4.0,52,0.00,,BKN250,0.00,VWS V14.01,2013-01-27 19:08:00,
2013-01-27 14:13:00,25.9,10.3,30.40,SW,234,4.0,5.4,51,0.00,,BKN250,0.00,VWS V14.01,2013-01-27 19:13:00,
2013-01-27 14:18:00,26.1,10.9,30.40,South,174,2.7,4.0,52,0.00,,BKN250,0.00,VWS V14.01,2013-01-27 19:18:00,
2013-01-27 14:23:00,26.1,10.9,30.40,WSW,237,2.7,2.7,52,0.00,,BKN250,0.00,VWS V14.01,2013-01-27 19:23:00,
2013-01-27 14:28:00,25.9,10.3,30.40,North,353,5.8,5.8,51,0.00,,BKN250,0.00,VWS V14.01,2013-01-27 19:28:00,
2013-01-27 14:33:00,26.1,10.9,30.40,NNE,31,3.1,3.6,52,0.00,,BKN250,0.00,VWS V14.01,2013-01-27 19:33:00,
2013-01-27 14:38:00,26.2,11.0,30.40,ENE,72,4.0,4.0,52,0.00,,BKN250,0.00,VWS V14.01,2013-01-27 19:38:00,
2013-01-27 14:43:00,26.2,11.0,30.40,ENE,72,3.6,3.6,52,0.00,,BKN250,0.00,VWS V14.01,2013-01-27 19:43:00,
2013-01-27 14:48:00,26.2,11.0,30.40,North,0,2.2,4.0,52,0.00,,BKN250,0.00,VWS V14.01,2013-01-27 19:48:00,
2013-01-27 14:53:00,26.2,11.0,30.40,North,357,5.4,5.4,52,0.00,,BKN250,0.00,VWS V14.01,2013-01-27 19:53:00,
2013-01-27 14:58:00,26.2,11.0,30.40,North,0,5.4,5.4,52,0.00,,BKN250,0.00,VWS V14.01,2013-01-27 19:58:00,
2013-01-27 15:03:00,26.1,10.9,30.40,NNW,345,0.0,2.2,52,0.00,,BKN250,0.00,VWS V14.01,2013-01-27 20:03:00,
2013-01-27 15:08:00,26.2,11.0,30.40,NNE,16,0.0,0.0,52,0.00,,BKN250,0.00,VWS V14.01,2013-01-27 20:08:00,
2013-01-27 15:13:00,26.4,11.2,30.40,ENE,71,0.0,2.7,52,0.00,,BKN250,0.00,VWS V14.01,2013-01-27 20:13:00,
2013-01-27 15:18:00,26.2,11.0,30.40,NW,324,2.7,2.7,52,0.00,,BKN250,0.00,VWS V14.01,2013-01-27 20:18:00,
2013-01-27 15:23:00,26.4,11.2,30.40,NNW,330,0.0,0.0,52,0.00,,BKN250,0.00,VWS V14.01,2013-01-27 20:23:00,
2013-01-27 15:28:00,26.4,11.2,30.40,ENE,59,3.1,4.0,52,0.00,,BKN250,0.00,VWS V14.01,2013-01-27 20:28:00,
2013-01-27 15:34:00,26.6,11.4,30.40,SE,125,3.1,3.6,52,0.00,,BKN250,0.00,VWS V14.01,2013-01-27 20:34:00,
2013-01-27 15:39:00,26.8,11.5,30.40,SW,220,2.2,2.7,52,0.00,,BKN250,0.00,VWS V14.01,2013-01-27 20:39:00,
2013-01-27 15:44:00,26.6,11.4,30.40,ENE,72,4.5,4.5,52,0.00,,BKN250,0.00,VWS V14.01,2013-01-27 20:44:00,
2013-01-27 15:49:00,26.4,11.2,30.40,East,83,3.1,3.1,52,0.00,,BKN250,0.00,VWS V14.01,2013-01-27 20:49:00,
2013-01-27 15:54:00,26.2,11.0,30.40,NE,56,2.7,3.6,52,0.00,,BKN250,0.00,VWS V14.01,2013-01-27 20:54:00,
2013-01-27 15:59:00,26.2,11.0,30.40,NE,56,3.1,3.6,52,0.00,,BKN250,0.00,VWS V14.01,2013-01-27 20:59:00,
2013-01-27 16:04:00,26.2,11.0,30.40,West,270,3.1,3.6,52,0.00,,BKN250,0.00,VWS V14.01,2013-01-27 21:04:00,
2013-01-27 16:09:00,26.4,10.8,30.40,WSW,253,0.0,2.7,51,0.00,,BKN250,0.00,VWS V14.01,2013-01-27 21:09:00,
2013-01-27 16:14:00,26.4,10.8,30.40,WSW,238,0.0,0.0,51,0.00,,BKN250,0.00,VWS V14.01,2013-01-27 21:14:00,
2013-01-27 16:19:00,26.4,10.8,30.40,SE,144,2.7,2.7,51,0.00,,BKN250,0.00,VWS V14.01,2013-01-27 21:19:00,
2013-01-27 16:24:00,26.4,10.8,30.40,South,169,2.7,2.7,51,0.00,,BKN250,0.00,VWS V14.01,2013-01-27 21:24:00,
2013-01-27 16:29:00,26.4,10.8,30.40,South,181,2.2,2.2,51,0.00,,BKN250,0.00,VWS V14.01,2013-01-27 21:29:00,
2013-01-27 16:34:00,26.4,10.8,30.40,South,189,3.6,5.4,51,0.00,,BKN250,0.00,VWS V14.01,2013-01-27 21:34:00,
2013-01-27 16:39:00,26.4,10.8,30.40,SSW,195,2.7,3.6,51,0.00,,BKN250,0.00,VWS V14.01,2013-01-27 21:39:00,
2013-01-27 16:44:00,26.4,10.8,30.40,SSE,167,4.0,4.0,51,0.00,,BKN250,0.00,VWS V14.01,2013-01-27 21:44:00,
2013-01-27 16:49:00,26.2,10.6,30.40,South,173,4.0,4.0,51,0.00,,BKN250,0.00,VWS V14.01,2013-01-27 21:49:00,
2013-01-27 16:54:00,26.1,10.4,30.40,SSW,192,3.1,3.1,51,0.00,,BKN250,0.00,VWS V14.01,2013-01-27 21:54:00,
2013-01-27 16:59:00,26.1,10.4,30.40,South,181,3.1,3.6,51,0.00,,BKN250,0.00,VWS V14.01,2013-01-27 21:59:00,
2013-01-27 17:04:00,26.1,10.4,30.37,South,181,2.2,2.2,51,0.00,,BKN240,0.00,VWS V14.01,2013-01-27 22:04:00,
2013-01-27 17:09:00,25.9,10.3,30.37,South,181,2.7,2.7,51,0.00,,BKN240,0.00,VWS V14.01,2013-01-27 22:09:00,
2013-01-27 17:14:00,25.7,10.1,30.37,South,181,0.0,0.0,51,0.00,,BKN240,0.00,VWS V14.01,2013-01-27 22:14:00,
2013-01-27 17:19:00,25.5,9.9,30.37,South,181,2.7,3.1,51,0.00,,BKN240,0.00,VWS V14.01,2013-01-27 22:19:00,
2013-01-27 17:24:00,25.0,9.9,30.37,ENE,61,3.6,4.0,52,0.00,,BKN240,0.00,VWS V14.01,2013-01-27 22:24:00,
2013-01-27 17:29:00,24.4,9.4,30.37,ENE,57,4.0,5.4,52,0.00,,BKN240,0.00,VWS V14.01,2013-01-27 22:29:00,
2013-01-27 17:34:00,24.4,9.8,30.37,ENE,74,3.1,3.6,53,0.00,,BKN250,0.00,VWS V14.01,2013-01-27 22:34:00,
2013-01-27 17:39:00,24.3,9.6,30.37,ENE,74,2.7,2.7,53,0.00,,BKN250,0.00,VWS V14.01,2013-01-27 22:39:00,
2013-01-27 17:44:00,24.3,9.6,30.37,East,79,2.7,2.7,53,0.00,,BKN250,0.00,VWS V14.01,2013-01-27 22:44:00,
2013-01-27 17:50:00,24.1,9.4,30.37,ENE,58,3.1,4.0,53,0.00,,BKN250,0.00,VWS V14.01,2013-01-27 22:50:00,
2013-01-27 17:55:00,23.9,9.3,30.37,ENE,58,3.6,3.6,53,0.00,,BKN250,0.00,VWS V14.01,2013-01-27 22:55:00,
2013-01-27 18:00:00,23.2,8.6,30.37,ENE,58,2.7,2.7,53,0.00,,BKN250,0.00,VWS V14.01,2013-01-27 23:00:00,
2013-01-27 18:05:00,23.0,8.9,30.37,ENE,59,2.7,3.1,54,0.00,,BKN250,0.00,VWS V14.01,2013-01-27 23:05:00,
2013-01-27 18:10:00,22.8,8.7,30.37,ENE,59,3.1,3.1,54,0.00,,BKN250,0.00,VWS V14.01,2013-01-27 23:10:00,
2013-01-27 18:15:00,22.8,8.7,30.37,ENE,62,2.2,3.1,54,0.00,,BKN250,0.00,VWS V14.01,2013-01-27 23:15:00,
2013-01-27 18:20:00,22.8,9.1,30.34,ENE,62,2.2,2.2,55,0.00,,BKN250,0.00,VWS V14.01,2013-01-27 23:20:00,
2013-01-27 18:25:00,22.8,9.1,30.34,ENE,62,2.7,3.1,55,0.00,,BKN250,0.00,VWS V14.01,2013-01-27 23:25:00,
2013-01-27 18:30:00,22.8,9.1,30.34,ENE,62,3.1,3.1,55,0.00,,BKN250,0.00,VWS V14.01,2013-01-27 23:30:00,
2013-01-27 18:35:00,22.6,9.3,30.34,ENE,62,2.7,3.1,56,0.00,,BKN250,0.00,VWS V14.01,2013-01-27 23:35:00,
2013-01-27 18:40:00,22.3,9.0,30.34,ENE,62,2.2,2.2,56,0.00,,BKN250,0.00,VWS V14.01,2013-01-27 23:40:00,
2013-01-27 18:45:00,22.3,9.0,30.34,ENE,62,2.7,2.7,56,0.00,,BKN250,0.00,VWS V14.01,2013-01-27 23:45:00,
2013-01-27 18:50:00,22.1,8.8,30.34,ENE,62,4.0,4.0,56,0.00,,BKN250,0.00,VWS V14.01,2013-01-27 23:50:00,
2013-01-27 18:55:00,21.9,8.6,30.34,ENE,70,2.2,2.2,56,0.00,,BKN250,0.00,VWS V14.01,2013-01-27 23:55:00,
2013-01-27 19:00:00,22.1,8.8,30.34,ENE,70,2.7,2.7,56,0.00,,BKN250,0.00,VWS V14.01,2013-01-28 00:00:00,
2013-01-27 19:05:00,22.1,8.8,30.34,ENE,70,2.7,2.7,56,0.00,,BKN250,0.00,VWS V14.01,2013-01-28 00:05:00,
2013-01-27 19:10:00,21.9,8.6,30.34,SSE,161,2.2,2.2,56,0.00,,BKN250,0.00,VWS V14.01,2013-01-28 00:10:00,
2013-01-27 19:15:00,21.7,8.1,30.34,SE,142,2.7,3.1,55,0.00,,BKN250,0.00,VWS V14.01,2013-01-28 00:15:00,
2013-01-27 19:20:00,21.9,8.2,30.34,ESE,113,4.0,4.0,55,0.00,,BKN250,0.00,VWS V14.01,2013-01-28 00:20:00,
2013-01-27 19:25:00,21.9,8.2,30.34,SSE,151,2.7,3.6,55,0.00,,BKN250,0.00,VWS V14.01,2013-01-28 00:25:00,
2013-01-27 19:30:00,21.9,8.2,30.34,SSE,150,2.7,2.7,55,0.00,,BKN250,0.00,VWS V14.01,2013-01-28 00:30:00,
2013-01-27 19:35:00,21.9,8.2,30.34,SSE,159,4.0,4.0,55,0.00,,BKN250,0.00,VWS V14.01,2013-01-28 00:35:00,
2013-01-27 19:40:00,21.9,8.2,30.34,SSE,161,3.6,3.6,55,0.00,,BKN250,0.00,VWS V14.01,2013-01-28 00:40:00,
2013-01-27 19:45:00,21.9,8.2,30.34,SSE,157,3.1,4.0,55,0.00,,BKN250,0.00,VWS V14.01,2013-01-28 00:45:00,
2013-01-27 19:50:00,21.9,8.2,30.34,SE,144,3.6,4.5,55,0.00,,BKN250,0.00,VWS V14.01,2013-01-28 00:50:00,
2013-01-27 19:55:00,21.9,8.2,30.34,SE,144,3.1,3.1,55,0.00,,BKN250,0.00,VWS V14.01,2013-01-28 00:55:00,
2013-01-27 20:00:00,21.9,8.2,30.34,SE,125,2.2,2.2,55,0.00,,BKN250,0.00,VWS V14.01,2013-01-28 01:00:00,
2013-01-27 20:05:00,21.9,8.2,30.34,SE,125,3.1,3.1,55,0.00,,BKN250,0.00,VWS V14.01,2013-01-28 01:05:00,
2013-01-27 20:10:00,21.9,8.6,30.34,East,98,3.1,4.0,56,0.00,,BKN250,0.00,VWS V14.01,2013-01-28 01:10:00,
2013-01-27 20:15:00,21.9,8.6,30.34,ESE,104,3.1,3.1,56,0.00,,BKN250,0.00,VWS V14.01,2013-01-28 01:15:00,
2013-01-27 20:20:00,21.9,8.6,30.34,ESE,108,3.6,4.9,56,0.00,,BKN250,0.00,VWS V14.01,2013-01-28 01:20:00,
2013-01-27 20:25:00,21.9,8.6,30.34,ENE,77,3.6,4.5,56,0.00,,BKN250,0.00,VWS V14.01,2013-01-28 01:25:00,
2013-01-27 20:30:00,21.7,8.5,30.34,ENE,75,2.7,3.1,56,0.00,,BKN250,0.00,VWS V14.01,2013-01-28 01:30:00,
2013-01-27 20:35:00,21.0,7.8,30.34,East,82,3.1,4.0,56,0.00,,SCT250,0.00,VWS V14.01,2013-01-28 01:35:00,
2013-01-27 20:40:00,21.0,7.8,30.34,ESE,113,3.1,3.1,56,0.00,,SCT250,0.00,VWS V14.01,2013-01-28 01:40:00,
2013-01-27 20:45:00,21.2,8.4,30.34,East,99,2.7,2.7,57,0.00,,SCT250,0.00,VWS V14.01,2013-01-28 01:45:00,
2013-01-27 20:51:00,21.2,8.4,30.31,ENE,75,2.7,3.6,57,0.00,,SCT250,0.00,VWS V14.01,2013-01-28 01:51:00,
2013-01-27 20:56:00,21.2,8.4,30.31,East,98,2.7,5.4,57,0.00,,SCT250,0.00,VWS V14.01,2013-01-28 01:56:00,
2013-01-27 21:01:00,21.0,8.2,30.31,East,88,3.1,4.0,57,0.00,,SCT250,0.00,VWS V14.01,2013-01-28 02:01:00,
2013-01-27 21:06:00,20.8,8.0,30.31,ENE,78,4.0,5.4,57,0.00,,SCT250,0.00,VWS V14.01,2013-01-28 02:06:00,
2013-01-27 21:11:00,20.7,7.8,30.31,ENE,71,3.1,4.0,57,0.00,,SCT250,0.00,VWS V14.01,2013-01-28 02:11:00,
2013-01-27 21:16:00,20.3,7.5,30.31,ENE,76,4.5,4.9,57,0.00,,SCT250,0.00,VWS V14.01,2013-01-28 02:16:00,
2013-01-27 21:21:00,20.3,7.9,30.31,ENE,68,3.6,4.0,58,0.00,,SCT250,0.00,VWS V14.01,2013-01-28 02:21:00,
2013-01-27 21:26:00,19.9,7.6,30.31,ENE,58,4.0,4.5,58,0.00,,SCT250,0.00,VWS V14.01,2013-01-28 02:26:00,
2013-01-27 21:31:00,19.9,7.6,30.31,ENE,64,4.0,5.4,58,0.00,,SCT250,0.00,VWS V14.01,2013-01-28 02:31:00,
2013-01-27 21:36:00,19.9,7.9,30.31,ENE,76,3.6,4.9,59,0.00,,SCT250,0.00,VWS V14.01,2013-01-28 02:36:00,
2013-01-27 21:41:00,20.1,8.1,30.31,East,83,3.1,4.0,59,0.00,,SCT250,0.00,VWS V14.01,2013-01-28 02:41:00,
2013-01-27 21:46:00,20.3,8.3,30.31,ENE,72,4.0,4.0,59,0.00,,SCT250,0.00,VWS V14.01,2013-01-28 02:46:00,
2013-01-27 21:51:00,20.5,8.8,30.31,East,79,3.1,3.1,60,0.00,,SCT250,0.00,VWS V14.01,2013-01-28 02:51:00,
2013-01-27 21:56:00,20.7,9.0,30.31,East,87,3.1,3.6,60,0.00,,SCT250,0.00,VWS V14.01,2013-01-28 02:56:00,
2013-01-27 22:01:00,20.7,9.0,30.31,ESE,109,3.1,3.1,60,0.00,,SCT250,0.00,VWS V14.01,2013-01-28 03:01:00,
2013-01-27 22:06:00,20.8,9.2,30.31,ENE,73,4.0,4.0,60,0.00,,SCT250,0.00,VWS V14.01,2013-01-28 03:06:00,
2013-01-27 22:11:00,21.0,9.3,30.31,NE,54,4.0,4.0,60,0.00,,SCT250,0.00,VWS V14.01,2013-01-28 03:11:00,
2013-01-27 22:16:00,21.2,9.5,30.31,ENE,64,2.7,2.7,60,0.00,,SCT250,0.00,VWS V14.01,2013-01-28 03:16:00,
2013-01-27 22:21:00,21.2,9.5,30.31,East,100,2.7,2.7,60,0.00,,SCT250,0.00,VWS V14.01,2013-01-28 03:21:00,
2013-01-27 22:26:00,21.2,9.5,30.31,East,92,3.1,3.6,60,0.00,,SCT250,0.00,VWS V14.01,2013-01-28 03:26:00,
2013-01-27 22:31:00,21.2,9.5,30.31,ESE,108,2.2,2.7,60,0.00,,SCT250,0.00,VWS V14.01,2013-01-28 03:31:00,
2013-01-27 22:36:00,21.4,9.7,30.28,East,100,2.7,2.7,60,0.00,,SCT250,0.00,VWS V14.01,2013-01-28 03:36:00,
2013-01-27 22:41:00,21.4,9.7,30.28,ESE,115,0.0,2.2,60,0.00,,SCT250,0.00,VWS V14.01,2013-01-28 03:41:00,
2013-01-27 22:46:00,21.6,9.8,30.28,ESE,102,2.7,2.7,60,0.00,,SCT250,0.00,VWS V14.01,2013-01-28 03:46:00,
2013-01-27 22:51:00,21.6,9.8,30.31,ESE,102,3.1,3.1,60,0.00,,SCT250,0.00,VWS V14.01,2013-01-28 03:51:00,
2013-01-27 22:56:00,21.6,9.8,30.31,ESE,110,0.0,0.0,60,0.00,,SCT250,0.00,VWS V14.01,2013-01-28 03:56:00,
2013-01-27 23:01:00,21.7,10.0,30.31,ESE,112,3.6,3.6,60,0.00,,OVC180,0.00,VWS V14.01,2013-01-28 04:01:00,
2013-01-27 23:06:00,21.7,10.0,30.28,ESE,117,3.1,4.0,60,0.00,,OVC180,0.00,VWS V14.01,2013-01-28 04:06:00,
2013-01-27 23:11:00,21.9,10.2,30.28,East,90,2.2,4.0,60,0.00,,OVC180,0.00,VWS V14.01,2013-01-28 04:11:00,
2013-01-27 23:17:00,21.9,10.2,30.28,East,90,2.7,3.1,60,0.00,,OVC180,0.00,VWS V14.01,2013-01-28 04:17:00,
2013-01-27 23:22:00,22.1,10.4,30.28,East,91,2.7,3.1,60,0.00,,OVC180,0.00,VWS V14.01,2013-01-28 04:22:00,
2013-01-27 23:27:00,22.3,10.5,30.28,East,98,2.7,4.0,60,0.00,,OVC180,0.00,VWS V14.01,2013-01-28 04:27:00,
2013-01-27 23:32:00,22.3,10.5,30.28,East,98,2.7,3.6,60,0.00,,OVC180,0.00,VWS V14.01,2013-01-28 04:32:00,
2013-01-27 23:37:00,22.3,10.5,30.28,East,92,2.2,2.2,60,0.00,,OVC180,0.00,VWS V14.01,2013-01-28 04:37:00,
2013-01-27 23:42:00,22.5,10.7,30.28,East,92,2.7,2.7,60,0.00,,OVC180,0.00,VWS V14.01,2013-01-28 04:42:00,
2013-01-27 23:47:00,22.5,10.3,30.28,East,92,2.7,2.7,59,0.00,,OVC180,0.00,VWS V14.01,2013-01-28 04:47:00,
2013-01-27 23:52:00,22.6,10.5,30.28,East,92,2.2,2.2,59,0.00,,OVC180,0.00,VWS V14.01,2013-01-28 04:52:00,
2013-01-27 23:57:00,22.8,11.0,30.28,East,82,2.7,2.7,60,0.00,,OVC180,0.00,VWS V14.01,2013-01-28 04:57:00,